Cegled, Hungary
Current Conditions -  °F | °C
As of 10:15 AM on Saturday 20 Dec 2014 (Local Time) from LHKE Reporting Station
Scattered Clouds Scattered Clouds  
Wind Chill: 42°   Ceiling: Unl
Heat Index: 48°   Visibility: 6mi
Dew Point: 41°   Wind: 16mph
Humidity: 76%   Direction: 290°WNW
Pressure: 30.15"   Gusts: NA
Location:  47.18°N, 19.78°E
Report Text: LHKE 200815Z 29014KT 9999 FEW020 SCT083 09/05 Q1021 NOSIG RMK BLU
Loading
Personal Weather Stations






























Interactive Weather Map New forecast layout! Learn more

10-Day Weather Forecast

Advertisements
Track Severe Weather on mobile